Time;durP1;ratioP1;P1;durP2;ratioP2;P2;SDS_P1;SDS_P2;PMS_P1;PMS_P2;Temp;Humidity;BMP_temperature;BMP_pressure;BME280_temperature;BME280_humidity;BME280_pressure;Samples;Min_cycle;Max_cycle;Signal;HPM_P1;HPM_P2
2021/10/24 00:00:13;;;;;;;;;;;20.80;56.80;;;;;;5072035;28;1290;-71
2021/10/24 00:02:39;;;;;;;;;;;20.80;56.90;;;;;;5072412;28;1419;-70
2021/10/24 00:05:04;;;;;;;;;;;20.80;56.90;;;;;;5071227;28;1047;-71
2021/10/24 00:07:30;;;;;;;;;;;20.80;56.90;;;;;;5096050;22;2038;-69
2021/10/24 00:09:56;;;;;;;;;;;20.80;56.90;;;;;;5067316;28;1388;-70
2021/10/24 00:12:21;;;;;;;;;;;20.80;56.90;;;;;;5053612;28;1918;-70
2021/10/24 00:14:46;;;;;;;;;;;20.80;57.00;;;;;;5052725;28;1231;-70
2021/10/24 00:17:12;;;;;;;;;;;20.80;57.00;;;;;;5034445;28;1369;-71
2021/10/24 00:19:37;;;;;;;;;;;20.80;57.00;;;;;;5053405;28;1278;-71
2021/10/24 00:22:03;;;;;;;;;;;20.70;57.00;;;;;;5038195;28;1353;-71
2021/10/24 00:24:29;;;;;;;;;;;20.80;57.10;;;;;;5037334;28;1302;-71
2021/10/24 00:26:54;;;;;;;;;;;20.70;57.00;;;;;;5055644;28;1297;-71
2021/10/24 00:29:20;;;;;;;;;;;20.70;57.10;;;;;;5038025;28;1307;-70
2021/10/24 00:31:45;;;;;;;;;;;20.70;57.10;;;;;;5055343;28;1898;-71
2021/10/24 00:34:10;;;;;;;;;;;20.70;57.10;;;;;;5059357;28;1316;-71
2021/10/24 00:36:36;;;;;;;;;;;20.70;57.10;;;;;;5057247;28;1280;-71
2021/10/24 00:39:01;;;;;;;;;;;20.70;57.20;;;;;;5075482;28;1145;-71
2021/10/24 00:41:29;;;;;;;;;;;20.70;57.20;;;;;;5075857;28;1328;-71
2021/10/24 00:43:55;;;;;;;;;;;20.70;57.20;;;;;;5074910;28;1322;-71
2021/10/24 00:46:20;;;;;;;;;;;20.70;57.30;;;;;;5057402;28;1372;-71
2021/10/24 00:48:46;;;;;;;;;;;20.70;57.30;;;;;;5057227;28;1123;-72
2021/10/24 00:51:13;;;;;;;;;;;20.70;57.30;;;;;;5057014;28;1215;-71
2021/10/24 00:53:38;;;;;;;;;;;20.70;57.30;;;;;;5057391;28;1902;-71
2021/10/24 00:56:04;;;;;;;;;;;20.70;57.30;;;;;;5056492;28;1246;-71
2021/10/24 00:58:29;;;;;;;;;;;20.70;57.30;;;;;;5057487;28;1405;-71
2021/10/24 01:00:55;;;;;;;;;;;20.70;57.40;;;;;;5057000;28;1565;-71
2021/10/24 01:03:20;;;;;;;;;;;20.70;57.40;;;;;;5057193;28;1114;-72
2021/10/24 01:05:46;;;;;;;;;;;20.70;57.40;;;;;;5073896;28;1364;-71
2021/10/24 01:08:12;;;;;;;;;;;20.70;57.40;;;;;;5056491;28;1424;-72
2021/10/24 01:10:37;;;;;;;;;;;20.70;57.40;;;;;;5064895;28;1307;-71
2021/10/24 01:13:03;;;;;;;;;;;20.70;57.50;;;;;;5042796;28;1973;-71
2021/10/24 01:15:28;;;;;;;;;;;20.70;57.50;;;;;;5056705;28;1333;-71
2021/10/24 01:17:54;;;;;;;;;;;20.60;57.40;;;;;;5074522;28;1378;-70
2021/10/24 01:20:20;;;;;;;;;;;20.60;57.50;;;;;;5056514;28;1286;-71
2021/10/24 01:22:45;;;;;;;;;;;20.60;57.50;;;;;;5056733;28;1091;-71
2021/10/24 01:25:11;;;;;;;;;;;20.60;57.50;;;;;;5056396;28;1341;-71
2021/10/24 01:27:36;;;;;;;;;;;20.70;57.60;;;;;;5074579;28;1271;-71
2021/10/24 01:30:05;;;;;;;;;;;20.60;57.60;;;;;;5046590;28;1150;-71
2021/10/24 01:32:30;;;;;;;;;;;20.70;57.60;;;;;;5035673;28;1963;-71
2021/10/24 01:34:58;;;;;;;;;;;20.60;57.60;;;;;;5053431;28;1118;-71
2021/10/24 01:37:29;;;;;;;;;;;20.60;57.60;;;;;;5036805;28;1403;-71
2021/10/24 01:39:54;;;;;;;;;;;20.60;57.60;;;;;;5036900;28;1321;-71
2021/10/24 01:42:20;;;;;;;;;;;20.60;57.60;;;;;;5036713;28;1389;-71
2021/10/24 01:44:49;;;;;;;;;;;20.70;57.70;;;;;;5046630;28;1111;-71
2021/10/24 01:47:15;;;;;;;;;;;20.70;57.70;;;;;;5074098;28;1277;-70
2021/10/24 01:49:40;;;;;;;;;;;20.60;57.70;;;;;;5056381;28;1150;-71
2021/10/24 01:52:05;;;;;;;;;;;20.60;57.70;;;;;;5055844;28;1953;-71
2021/10/24 01:54:31;;;;;;;;;;;20.70;57.70;;;;;;5073396;28;1301;-71
2021/10/24 01:56:57;;;;;;;;;;;20.60;57.70;;;;;;5074217;28;1602;-71
2021/10/24 01:59:22;;;;;;;;;;;20.60;57.80;;;;;;5074143;28;1107;-71
2021/10/24 02:01:47;;;;;;;;;;;20.60;57.70;;;;;;5055666;28;1152;-71
2021/10/24 02:04:13;;;;;;;;;;;20.60;57.80;;;;;;5073056;28;1264;-71
2021/10/24 02:06:38;;;;;;;;;;;20.60;57.80;;;;;;5073379;28;1286;-71
2021/10/24 02:09:04;;;;;;;;;;;20.60;57.80;;;;;;5065955;28;1262;-71
2021/10/24 02:11:29;;;;;;;;;;;20.60;57.90;;;;;;5058100;28;1267;-71
2021/10/24 02:13:55;;;;;;;;;;;20.60;58.40;;;;;;5064028;28;1906;-71
2021/10/24 02:16:20;;;;;;;;;;;20.60;57.90;;;;;;5054276;28;1289;-72
2021/10/24 02:18:45;;;;;;;;;;;20.60;57.90;;;;;;5072405;28;1315;-71
2021/10/24 02:21:11;;;;;;;;;;;20.60;57.90;;;;;;5072530;28;1261;-71
2021/10/24 02:23:36;;;;;;;;;;;20.60;57.90;;;;;;5072999;28;1154;-72
2021/10/24 02:26:02;;;;;;;;;;;20.60;57.90;;;;;;5053055;28;1335;-71
2021/10/24 02:28:27;;;;;;;;;;;20.60;58.00;;;;;;5072463;28;1323;-72
2021/10/24 02:30:52;;;;;;;;;;;20.60;57.90;;;;;;5072564;28;1070;-72
2021/10/24 02:33:18;;;;;;;;;;;20.60;58.00;;;;;;5038060;28;1898;-71
2021/10/24 02:35:43;;;;;;;;;;;20.60;58.00;;;;;;5054032;28;1299;-72
2021/10/24 02:38:09;;;;;;;;;;;20.60;58.00;;;;;;5072357;28;1102;-72
2021/10/24 02:40:34;;;;;;;;;;;20.60;58.00;;;;;;5072123;28;1239;-70
2021/10/24 02:43:00;;;;;;;;;;;20.60;58.00;;;;;;5072001;28;1134;-72
2021/10/24 02:45:25;;;;;;;;;;;20.60;58.10;;;;;;5071926;28;1264;-71
2021/10/24 02:47:50;;;;;;;;;;;20.60;58.10;;;;;;5071911;28;1283;-70
2021/10/24 02:50:17;;;;;;;;;;;20.50;58.00;;;;;;5054359;28;1149;-72
2021/10/24 02:52:42;;;;;;;;;;;20.60;58.10;;;;;;5072311;28;1905;-72
2021/10/24 02:55:08;;;;;;;;;;;20.50;58.00;;;;;;5072216;28;1273;-71
2021/10/24 02:57:33;;;;;;;;;;;20.60;58.10;;;;;;5054173;28;1353;-71
2021/10/24 02:59:59;;;;;;;;;;;20.60;58.10;;;;;;5072239;28;1287;-71
2021/10/24 03:02:25;;;;;;;;;;;20.60;58.10;;;;;;5037299;28;1315;-71
2021/10/24 03:04:50;;;;;;;;;;;20.60;58.20;;;;;;5071469;28;1204;-71
2021/10/24 03:07:15;;;;;;;;;;;20.60;58.20;;;;;;5039405;28;995190;-71
2021/10/24 03:09:42;;;;;;;;;;;20.60;58.20;;;;;;5035162;28;1295;-71
2021/10/24 03:12:08;;;;;;;;;;;20.60;58.20;;;;;;5052331;28;1906;-71
2021/10/24 03:14:33;;;;;;;;;;;20.50;58.20;;;;;;5050768;28;1239;-71
2021/10/24 03:16:59;;;;;;;;;;;20.50;58.20;;;;;;5072290;28;1305;-71
2021/10/24 03:19:25;;;;;;;;;;;20.60;58.20;;;;;;5072576;28;1309;-71
2021/10/24 03:21:50;;;;;;;;;;;20.50;58.20;;;;;;5054649;28;1395;-71
2021/10/24 03:24:18;;;;;;;;;;;20.50;58.20;;;;;;5071569;28;1352;-71
2021/10/24 03:26:43;;;;;;;;;;;20.50;58.20;;;;;;5054761;28;1321;-70
2021/10/24 03:29:08;;;;;;;;;;;20.50;58.20;;;;;;5054313;28;1087;-72
2021/10/24 03:31:34;;;;;;;;;;;20.50;58.30;;;;;;5054148;28;1378;-72
2021/10/24 03:33:59;;;;;;;;;;;20.50;58.30;;;;;;5054516;28;1964;-72
2021/10/24 03:36:25;;;;;;;;;;;20.50;58.30;;;;;;5072037;28;1292;-71
2021/10/24 03:38:50;;;;;;;;;;;20.50;58.90;;;;;;5054341;28;1143;-72
2021/10/24 03:41:16;;;;;;;;;;;20.50;58.30;;;;;;5072309;28;1291;-72
2021/10/24 03:43:41;;;;;;;;;;;20.60;58.30;;;;;;5054448;28;1317;-71
2021/10/24 03:46:07;;;;;;;;;;;20.60;58.30;;;;;;5053467;28;1359;-72
2021/10/24 03:48:32;;;;;;;;;;;20.60;58.20;;;;;;5054753;28;1282;-71
2021/10/24 03:50:57;;;;;;;;;;;20.60;58.20;;;;;;5072408;28;1075;-71
2021/10/24 03:53:23;;;;;;;;;;;20.60;58.10;;;;;;5053871;28;1906;-72
2021/10/24 03:55:48;;;;;;;;;;;20.60;58.00;;;;;;5075605;28;1400;-71
2021/10/24 03:58:14;;;;;;;;;;;20.70;58.00;;;;;;5058536;28;1205;-72
2021/10/24 04:00:39;;;;;;;;;;;20.70;57.90;;;;;;5076330;28;1075;-71
2021/10/24 04:03:05;;;;;;;;;;;20.80;57.90;;;;;;5076348;28;1231;-71
2021/10/24 04:05:31;;;;;;;;;;;20.80;57.80;;;;;;5075211;28;1344;-72
2021/10/24 04:07:56;;;;;;;;;;;20.80;57.70;;;;;;5058174;28;1307;-71
2021/10/24 04:10:23;;;;;;;;;;;20.90;57.70;;;;;;5067875;28;1142;-71
2021/10/24 04:12:48;;;;;;;;;;;20.90;57.60;;;;;;5058526;28;1902;-71
2021/10/24 04:15:14;;;;;;;;;;;20.90;57.50;;;;;;5057794;28;1293;-72
2021/10/24 04:17:39;;;;;;;;;;;20.90;57.40;;;;;;5076033;28;1360;-72
2021/10/24 04:20:06;;;;;;;;;;;20.90;57.40;;;;;;5075951;28;1275;-71
2021/10/24 04:22:31;;;;;;;;;;;21.00;57.40;;;;;;5075803;28;1399;-72
2021/10/24 04:24:57;;;;;;;;;;;21.00;57.40;;;;;;5057383;28;1329;-71
2021/10/24 04:27:22;;;;;;;;;;;21.00;57.30;;;;;;5075664;28;1356;-72
2021/10/24 04:29:47;;;;;;;;;;;21.00;57.30;;;;;;5075798;28;1368;-71
2021/10/24 04:32:13;;;;;;;;;;;21.00;57.30;;;;;;5057500;28;1906;-71
2021/10/24 04:34:38;;;;;;;;;;;21.00;57.20;;;;;;5057000;28;1277;-72
2021/10/24 04:37:04;;;;;;;;;;;21.00;57.20;;;;;;5057507;28;1288;-72
2021/10/24 04:39:29;;;;;;;;;;;21.10;57.20;;;;;;5075468;28;1287;-71
2021/10/24 04:41:55;;;;;;;;;;;21.10;57.20;;;;;;5057228;28;1342;-72
2021/10/24 04:44:20;;;;;;;;;;;21.10;57.20;;;;;;5056486;28;1297;-72
2021/10/24 04:46:45;;;;;;;;;;;21.10;57.10;;;;;;5075437;28;1292;-71
2021/10/24 04:49:11;;;;;;;;;;;21.10;57.20;;;;;;5075461;28;1257;-72
2021/10/24 04:51:36;;;;;;;;;;;21.10;57.10;;;;;;5075316;28;1336;-71
2021/10/24 04:54:02;;;;;;;;;;;21.10;57.10;;;;;;5075109;28;1886;-71
2021/10/24 04:56:27;;;;;;;;;;;21.10;57.10;;;;;;5056217;28;1371;-72
2021/10/24 04:58:52;;;;;;;;;;;21.10;57.10;;;;;;5075038;28;1498;-72
2021/10/24 05:01:18;;;;;;;;;;;21.10;57.10;;;;;;5077116;28;1066;-70
2021/10/24 05:03:44;;;;;;;;;;;21.10;57.10;;;;;;5075254;28;1316;-71
2021/10/24 05:06:10;;;;;;;;;;;21.10;57.10;;;;;;5073751;28;1351;-71
2021/10/24 05:08:35;;;;;;;;;;;21.20;57.10;;;;;;5075217;28;1366;-71
2021/10/24 05:11:01;;;;;;;;;;;21.20;57.10;;;;;;5061610;28;1114;-71
2021/10/24 05:13:26;;;;;;;;;;;21.20;57.60;;;;;;5062088;28;1969;-71
2021/10/24 05:15:52;;;;;;;;;;;21.20;57.10;;;;;;5056327;28;1300;-71
2021/10/24 05:18:17;;;;;;;;;;;21.20;57.10;;;;;;5074466;28;1214;-72
2021/10/24 05:20:43;;;;;;;;;;;21.10;57.00;;;;;;5067984;28;1716;-71
2021/10/24 05:23:08;;;;;;;;;;;21.20;57.10;;;;;;5052544;28;1960;-70
2021/10/24 05:25:34;;;;;;;;;;;21.20;57.10;;;;;;5067096;28;1915;-70
2021/10/24 05:27:59;;;;;;;;;;;21.20;57.10;;;;;;5050789;28;1297;-70
2021/10/24 05:30:25;;;;;;;;;;;21.20;57.00;;;;;;5061097;28;1161;-70
2021/10/24 05:32:50;;;;;;;;;;;21.20;57.00;;;;;;5053855;28;1894;-66
2021/10/24 05:35:16;;;;;;;;;;;21.20;57.10;;;;;;5035222;28;1334;-68
2021/10/24 05:37:41;;;;;;;;;;;21.20;57.10;;;;;;5053676;28;1393;-68
2021/10/24 05:40:07;;;;;;;;;;;21.20;57.00;;;;;;5053560;28;1334;-67
2021/10/24 05:42:32;;;;;;;;;;;21.20;57.00;;;;;;5053157;28;1293;-68
2021/10/24 05:44:58;;;;;;;;;;;21.20;57.00;;;;;;5034687;28;1328;-67
2021/10/24 05:47:24;;;;;;;;;;;21.20;57.00;;;;;;5053209;28;1421;-68
2021/10/24 05:49:50;;;;;;;;;;;21.20;57.00;;;;;;5035218;28;1289;-68
2021/10/24 05:52:16;;;;;;;;;;;21.20;57.00;;;;;;5052907;28;1985;-69
2021/10/24 05:54:41;;;;;;;;;;;21.20;57.00;;;;;;5052472;28;1256;-69
2021/10/24 05:57:07;;;;;;;;;;;21.20;57.00;;;;;;5034541;28;1351;-68
2021/10/24 05:59:32;;;;;;;;;;;21.20;57.00;;;;;;5052528;28;1258;-69
2021/10/24 06:01:57;;;;;;;;;;;21.20;57.00;;;;;;5052956;28;1270;-69
2021/10/24 06:04:23;;;;;;;;;;;21.20;57.00;;;;;;5052596;28;1138;-69
2021/10/24 06:06:48;;;;;;;;;;;21.20;57.00;;;;;;5052321;28;1316;-70
2021/10/24 06:09:14;;;;;;;;;;;21.20;57.00;;;;;;5077263;28;1260;-70
2021/10/24 06:12:14;;;;;;;;;;;21.20;55.10;;;;;;5037600;28;1348;-71
2021/10/24 06:14:32;;;;;;;;;;;21.20;52.70;;;;;;5081942;23;3540;-72
2021/10/24 06:16:58;;;;;;;;;;;21.20;49.90;;;;;;5083313;28;1272;-71
2021/10/24 06:19:23;;;;;;;;;;;21.20;48.10;;;;;;5102560;28;1173;-69
2021/10/24 06:21:49;;;;;;;;;;;21.10;46.90;;;;;;5093524;28;1325;-71
2021/10/24 06:24:14;;;;;;;;;;;21.10;46.00;;;;;;5093067;28;1408;-70
2021/10/24 06:26:40;;;;;;;;;;;21.00;48.00;;;;;;5092497;28;1275;-70
2021/10/24 06:29:06;;;;;;;;;;;21.00;48.20;;;;;;5092391;28;1382;-72
2021/10/24 06:31:32;;;;;;;;;;;21.00;48.60;;;;;;5074175;28;1324;-72
2021/10/24 06:33:57;;;;;;;;;;;21.00;48.80;;;;;;5092481;28;1972;-72
2021/10/24 06:36:23;;;;;;;;;;;21.00;48.90;;;;;;5091515;28;1094;-70
2021/10/24 06:38:48;;;;;;;;;;;21.00;49.20;;;;;;5079111;28;1146;-71
2021/10/24 06:41:14;;;;;;;;;;;21.00;49.50;;;;;;5092439;28;1272;-71
2021/10/24 06:43:39;;;;;;;;;;;21.10;49.80;;;;;;5092165;28;1299;-71
2021/10/24 06:46:04;;;;;;;;;;;21.10;50.10;;;;;;5091421;28;1319;-70
2021/10/24 06:48:30;;;;;;;;;;;21.10;51.50;;;;;;5091714;28;1262;-71
2021/10/24 06:50:55;;;;;;;;;;;21.20;51.60;;;;;;5076984;28;1891;-71
2021/10/24 06:53:21;;;;;;;;;;;21.20;51.60;;;;;;5086671;28;1898;-71
2021/10/24 06:55:46;;;;;;;;;;;21.30;51.60;;;;;;5089224;28;1288;-70
2021/10/24 06:58:11;;;;;;;;;;;21.50;51.70;;;;;;5091688;28;1476;-70
2021/10/24 07:00:37;;;;;;;;;;;21.60;51.70;;;;;;5092275;28;1125;-70
2021/10/24 07:03:02;;;;;;;;;;;21.70;51.60;;;;;;5093167;28;1361;-70
2021/10/24 07:05:28;;;;;;;;;;;21.80;51.50;;;;;;5092198;28;1436;-70
2021/10/24 07:07:53;;;;;;;;;;;21.90;51.40;;;;;;5085812;28;1300;-70
2021/10/24 07:10:19;;;;;;;;;;;22.00;51.40;;;;;;5068396;28;1680;-70
2021/10/24 07:12:50;;;;;;;;;;;22.10;51.30;;;;;;5073287;28;1902;-70
2021/10/24 07:15:16;;;;;;;;;;;22.20;51.30;;;;;;5061305;28;1208;-70
2021/10/24 07:17:41;;;;;;;;;;;22.30;51.50;;;;;;5071921;28;1168;-70
2021/10/24 07:20:07;;;;;;;;;;;22.30;51.60;;;;;;5070390;28;1279;-70
2021/10/24 07:22:33;;;;;;;;;;;22.40;52.20;;;;;;5071713;28;1302;-71
2021/10/24 07:24:58;;;;;;;;;;;22.50;52.10;;;;;;5071452;28;1326;-70
2021/10/24 07:27:24;;;;;;;;;;;22.50;51.90;;;;;;5071444;28;1290;-71
2021/10/24 07:29:49;;;;;;;;;;;22.50;52.00;;;;;;5071669;28;1244;-70
2021/10/24 07:32:15;;;;;;;;;;;22.60;52.20;;;;;;5071919;28;1960;-70
2021/10/24 07:34:41;;;;;;;;;;;22.60;52.20;;;;;;5079316;28;1357;-70
2021/10/24 07:37:06;;;;;;;;;;;22.60;52.70;;;;;;5092227;28;1338;-70
2021/10/24 07:39:32;;;;;;;;;;;22.60;52.70;;;;;;5092205;28;1327;-70
2021/10/24 07:41:57;;;;;;;;;;;22.70;52.70;;;;;;5092542;28;1360;-70
2021/10/24 07:44:23;;;;;;;;;;;22.70;52.70;;;;;;5091772;28;1276;-70
2021/10/24 07:46:53;;;;;;;;;;;22.70;52.80;;;;;;5091912;28;1255;-70
2021/10/24 07:49:19;;;;;;;;;;;22.70;52.80;;;;;;5075708;28;1097;-70
2021/10/24 07:51:45;;;;;;;;;;;22.70;52.90;;;;;;5074210;28;1314;-70
2021/10/24 07:54:10;;;;;;;;;;;22.70;53.00;;;;;;5091410;28;1936;-70
2021/10/24 07:56:36;;;;;;;;;;;22.70;53.10;;;;;;5092311;28;1334;-70
2021/10/24 07:59:02;;;;;;;;;;;22.70;53.10;;;;;;5092155;28;1279;-70
2021/10/24 08:01:27;;;;;;;;;;;22.70;53.20;;;;;;5091952;28;1284;-70
2021/10/24 08:03:53;;;;;;;;;;;22.70;53.30;;;;;;5074120;28;1338;-70
2021/10/24 08:06:21;;;;;;;;;;;22.70;53.90;;;;;;5091557;28;1122;-70
2021/10/24 08:08:48;;;;;;;;;;;22.70;54.10;;;;;;5084212;28;1204;-70
2021/10/24 08:11:13;;;;;;;;;;;22.70;54.10;;;;;;5086961;28;1377;-70
2021/10/24 08:13:38;;;;;;;;;;;22.70;54.30;;;;;;5082642;28;1941;-70
2021/10/24 08:16:04;;;;;;;;;;;22.60;54.30;;;;;;5086090;28;1267;-70
2021/10/24 08:18:29;;;;;;;;;;;22.60;54.30;;;;;;5071113;28;1227;-70
2021/10/24 08:20:55;;;;;;;;;;;22.60;54.60;;;;;;5085909;28;1306;-70
2021/10/24 08:23:20;;;;;;;;;;;22.60;54.70;;;;;;5073974;28;1298;-70
2021/10/24 08:25:46;;;;;;;;;;;22.60;54.70;;;;;;5091402;28;1327;-70
2021/10/24 08:28:11;;;;;;;;;;;22.60;54.70;;;;;;5084350;28;2108;-70
2021/10/24 08:30:37;;;;;;;;;;;22.60;54.90;;;;;;5078532;28;1091;-70
2021/10/24 08:33:02;;;;;;;;;;;22.60;54.90;;;;;;5077555;28;1905;-70
2021/10/24 08:35:28;;;;;;;;;;;22.60;55.00;;;;;;5070459;28;1408;-71
2021/10/24 08:37:53;;;;;;;;;;;22.60;55.20;;;;;;5081092;28;1161;-71
2021/10/24 08:40:18;;;;;;;;;;;22.60;55.40;;;;;;5074790;28;1360;-71
2021/10/24 08:42:45;;;;;;;;;;;22.60;55.40;;;;;;5070711;28;1442;-71
2021/10/24 08:45:11;;;;;;;;;;;22.60;55.50;;;;;;5076773;28;1212;-70
2021/10/24 08:47:37;;;;;;;;;;;22.60;55.50;;;;;;5077190;28;1278;-70
2021/10/24 08:50:03;;;;;;;;;;;22.60;55.60;;;;;;5077140;28;1406;-70
2021/10/24 08:52:28;;;;;;;;;;;22.60;55.70;;;;;;5077259;28;1955;-70
2021/10/24 08:54:54;;;;;;;;;;;22.60;55.70;;;;;;5076346;28;1286;-69
2021/10/24 08:57:26;;;;;;;;;;;22.60;55.70;;;;;;5095856;28;1306;-70
2021/10/24 08:59:53;;;;;;;;;;;22.50;55.60;;;;;;5094754;28;1257;-69
2021/10/24 09:02:19;;;;;;;;;;;22.50;55.70;;;;;;5077660;28;1441;-70
2021/10/24 09:04:48;;;;;;;;;;;22.50;55.70;;;;;;5093923;28;1203;-69
2021/10/24 09:07:13;;;;;;;;;;;22.50;55.80;;;;;;5095018;28;1330;-70
2021/10/24 09:09:39;;;;;;;;;;;22.50;55.90;;;;;;5081160;28;1149;-70
2021/10/24 09:12:08;;;;;;;;;;;22.50;55.90;;;;;;5095360;28;1934;-69
2021/10/24 09:14:33;;;;;;;;;;;22.50;55.90;;;;;;5079746;28;1358;-70
2021/10/24 09:16:59;;;;;;;;;;;22.50;56.00;;;;;;5076863;28;1409;-70
2021/10/24 09:19:24;;;;;;;;;;;22.50;56.10;;;;;;5063300;28;1275;-72
2021/10/24 09:21:50;;;;;;;;;;;22.50;56.10;;;;;;5085945;28;1299;-71
2021/10/24 09:24:15;;;;;;;;;;;22.50;56.20;;;;;;5089662;28;1484;-72
2021/10/24 09:26:41;;;;;;;;;;;22.50;56.30;;;;;;5076442;28;1287;-70
2021/10/24 09:29:10;;;;;;;;;;;22.50;56.30;;;;;;5076968;28;1332;-70
2021/10/24 09:31:37;;;;;;;;;;;22.40;56.30;;;;;;5076322;28;1350;-71
2021/10/24 09:34:21;;;;;;;;;;;22.40;56.30;;;;;;5076288;28;1976;-71
2021/10/24 09:36:56;;;;;;;;;;;22.40;56.40;;;;;;5076668;28;1299;-71
2021/10/24 09:39:25;;;;;;;;;;;22.40;56.40;;;;;;5076622;28;1394;-70
2021/10/24 09:41:51;;;;;;;;;;;22.40;56.50;;;;;;5076484;28;1377;-70
2021/10/24 09:44:17;;;;;;;;;;;22.50;56.60;;;;;;5075386;28;1571;-71
2021/10/24 09:46:47;;;;;;;;;;;22.50;56.60;;;;;;5059563;28;1211;-70
2021/10/24 09:49:17;;;;;;;;;;;22.40;56.50;;;;;;5076796;28;1235;-70
2021/10/24 09:51:42;;;;;;;;;;;22.40;56.60;;;;;;5071710;28;1355;-70
2021/10/24 09:54:16;;;;;;;;;;;22.40;56.60;;;;;;5055530;28;1949;-70
2021/10/24 09:56:41;;;;;;;;;;;22.40;56.60;;;;;;5049771;28;1760;-71
2021/10/24 09:59:06;;;;;;;;;;;22.40;56.70;;;;;;5060526;28;1136;-72
2021/10/24 10:01:32;;;;;;;;;;;22.40;56.70;;;;;;5074990;28;1363;-71
2021/10/24 10:03:57;;;;;;;;;;;22.40;56.80;;;;;;5075802;28;1309;-70
2021/10/24 10:06:23;;;;;;;;;;;22.40;56.80;;;;;;5091770;28;1273;-72
2021/10/24 10:08:49;;;;;;;;;;;22.40;56.80;;;;;;5084624;28;1173;-72
2021/10/24 10:11:24;;;;;;;;;;;22.40;56.90;;;;;;5088130;28;1309;-72
2021/10/24 10:14:19;;;;;;;;;;;22.40;56.90;;;;;;5074265;28;1883;-72
2021/10/24 10:16:45;;;;;;;;;;;22.40;57.00;;;;;;5083560;28;1444;-71
2021/10/24 10:19:11;;;;;;;;;;;22.40;57.00;;;;;;5074741;28;1294;-72
2021/10/24 10:21:38;;;;;;;;;;;22.40;57.00;;;;;;5074763;28;1298;-71
2021/10/24 10:24:04;;;;;;;;;;;22.40;57.00;;;;;;5073962;28;1398;-72
2021/10/24 10:26:34;;;;;;;;;;;22.40;57.20;;;;;;5074206;28;1309;-71
2021/10/24 10:28:59;;;;;;;;;;;22.40;57.20;;;;;;5074378;28;1354;-71
2021/10/24 10:31:25;;;;;;;;;;;22.40;57.30;;;;;;5058170;28;1450;-71
2021/10/24 10:33:57;;;;;;;;;;;22.40;57.40;;;;;;5092425;28;1961;-71
2021/10/24 10:36:23;;;;;;;;;;;22.40;57.40;;;;;;5091135;28;1331;-71
2021/10/24 10:38:48;;;;;;;;;;;22.40;57.50;;;;;;5074243;28;1595;-71
2021/10/24 10:41:14;;;;;;;;;;;22.40;57.50;;;;;;5093001;28;1278;-72
2021/10/24 10:43:40;;;;;;;;;;;22.40;57.50;;;;;;5093329;28;1332;-71
2021/10/24 10:46:06;;;;;;;;;;;22.40;57.60;;;;;;5074655;28;1344;-71
2021/10/24 10:48:40;;;;;;;;;;;22.40;57.60;;;;;;5092352;28;1262;-71
2021/10/24 10:51:19;;;;;;;;;;;22.40;57.60;;;;;;5092432;28;1306;-71
2021/10/24 10:53:44;;;;;;;;;;;22.40;57.60;;;;;;5092364;28;1984;-71
2021/10/24 10:56:16;;;;;;;;;;;22.40;57.90;;;;;;5091896;28;1266;-71
2021/10/24 10:58:42;;;;;;;;;;;22.40;57.70;;;;;;5092525;28;1311;-70
2021/10/24 11:01:19;;;;;;;;;;;22.50;57.80;;;;;;5092712;28;1202;-72
2021/10/24 11:03:46;;;;;;;;;;;22.50;57.60;;;;;;5092539;28;1280;-70
2021/10/24 11:06:31;;;;;;;;;;;22.50;57.70;;;;;;5092763;28;1332;-71
2021/10/24 11:08:57;;;;;;;;;;;22.50;57.80;;;;;;5083019;28;1313;-71
2021/10/24 11:11:55;;;;;;;;;;;22.50;57.90;;;;;;5088012;28;1260;-71
2021/10/24 11:14:32;;;;;;;;;;;22.50;57.90;;;;;;5077777;28;1897;-71
2021/10/24 11:16:58;;;;;;;;;;;22.50;57.90;;;;;;5093090;28;1351;-71
2021/10/24 11:19:26;;;;;;;;;;;22.50;57.90;;;;;;5092555;28;1288;-72
2021/10/24 11:21:52;;;;;;;;;;;22.40;57.90;;;;;;5093040;28;1266;-72
2021/10/24 11:24:17;;;;;;;;;;;22.50;58.00;;;;;;5091744;28;1365;-71
2021/10/24 11:26:43;;;;;;;;;;;22.50;58.10;;;;;;5092360;28;1265;-72
2021/10/24 11:29:08;;;;;;;;;;;22.40;58.10;;;;;;5092613;28;1323;-71
2021/10/24 11:31:34;;;;;;;;;;;22.40;58.00;;;;;;5074554;28;1274;-71
2021/10/24 11:33:59;;;;;;;;;;;22.40;58.00;;;;;;5074640;28;1945;-72
2021/10/24 11:36:25;;;;;;;;;;;22.50;58.10;;;;;;5091470;28;1095;-71
2021/10/24 11:38:57;;;;;;;;;;;22.50;58.10;;;;;;5092434;28;1281;-71
2021/10/24 11:41:22;;;;;;;;;;;22.40;58.00;;;;;;5078625;28;1175;-71
2021/10/24 11:43:51;;;;;;;;;;;22.50;58.20;;;;;;5088573;28;1425;-72
2021/10/24 11:46:16;;;;;;;;;;;22.50;58.30;;;;;;5073606;28;1276;-72
2021/10/24 11:48:41;;;;;;;;;;;22.40;58.20;;;;;;5092248;28;1165;-72
2021/10/24 11:51:07;;;;;;;;;;;22.40;58.20;;;;;;5092284;28;1261;-72
2021/10/24 11:53:46;;;;;;;;;;;22.40;58.30;;;;;;5073866;28;1890;-72
2021/10/24 11:56:12;;;;;;;;;;;22.40;58.30;;;;;;5091783;28;1338;-71
2021/10/24 11:58:50;;;;;;;;;;;22.40;58.30;;;;;;5092129;28;1174;-73
2021/10/24 12:01:19;;;;;;;;;;;22.40;58.40;;;;;;5068187;28;1296;-72
2021/10/24 12:03:52;;;;;;;;;;;22.40;58.40;;;;;;5065454;28;1352;-73
2021/10/24 12:06:18;;;;;;;;;;;22.40;57.30;;;;;;5073071;28;1411;-74
2021/10/24 12:08:50;;;;;;;;;;;22.40;54.20;;;;;;5083999;28;1247;-74
2021/10/24 12:11:23;;;;;;;;;;;22.30;52.60;;;;;;5067330;28;1317;-74
2021/10/24 12:13:48;;;;;;;;;;;22.30;52.40;;;;;;5081893;22;2150;-70
2021/10/24 12:16:30;;;;;;;;;;;22.20;51.40;;;;;;5072785;28;1379;-70
2021/10/24 12:19:32;;;;;;;;;;;22.20;50.80;;;;;;5074681;28;1112;-70
2021/10/24 12:22:07;;;;;;;;;;;22.10;50.20;;;;;;5063076;28;1461;-69
2021/10/24 12:24:58;;;;;;;;;;;22.10;49.60;;;;;;5075763;28;1334;-70
2021/10/24 12:27:30;;;;;;;;;;;22.10;49.00;;;;;;5068227;28;1357;-69
2021/10/24 12:30:09;;;;;;;;;;;22.00;48.50;;;;;;5076134;28;1542;-69
2021/10/24 12:32:35;;;;;;;;;;;22.00;49.00;;;;;;5057518;28;1979;-69
2021/10/24 12:35:02;;;;;;;;;;;22.00;48.30;;;;;;5040716;28;1401;-69
2021/10/24 12:37:27;;;;;;;;;;;21.90;47.90;;;;;;5075746;28;1310;-69
2021/10/24 12:40:11;;;;;;;;;;;21.90;47.20;;;;;;5065331;28;1051;-69
2021/10/24 12:42:36;;;;;;;;;;;21.90;47.00;;;;;;5075320;28;1350;-69
2021/10/24 12:45:11;;;;;;;;;;;21.80;46.70;;;;;;5075352;28;1331;-69
2021/10/24 12:47:36;;;;;;;;;;;21.80;46.40;;;;;;5075601;28;1345;-69
2021/10/24 12:50:04;;;;;;;;;;;21.80;46.00;;;;;;5075462;28;1389;-69
2021/10/24 12:52:31;;;;;;;;;;;21.80;45.80;;;;;;5075808;28;1902;-70
2021/10/24 12:54:58;;;;;;;;;;;21.80;45.70;;;;;;5075080;28;1341;-69
2021/10/24 12:57:23;;;;;;;;;;;21.70;46.10;;;;;;5057616;28;1297;-70
2021/10/24 12:59:49;;;;;;;;;;;21.70;45.10;;;;;;5057483;28;1377;-70
2021/10/24 13:02:15;;;;;;;;;;;21.70;45.20;;;;;;5075416;28;1419;-69
2021/10/24 13:04:43;;;;;;;;;;;21.60;44.90;;;;;;5074797;28;1390;-69
2021/10/24 13:07:08;;;;;;;;;;;21.60;44.80;;;;;;5075452;28;1413;-69
2021/10/24 13:09:33;;;;;;;;;;;21.60;44.80;;;;;;5075373;28;1142;-69
2021/10/24 13:12:00;;;;;;;;;;;21.60;44.60;;;;;;5075332;28;1347;-70
2021/10/24 13:14:25;;;;;;;;;;;21.50;44.60;;;;;;5057006;28;1960;-69
2021/10/24 13:16:51;;;;;;;;;;;21.50;44.40;;;;;;5056890;28;1298;-69
2021/10/24 13:19:16;;;;;;;;;;;21.50;44.10;;;;;;5075107;28;1385;-69
2021/10/24 13:24:08;;;;;;;;;;;21.40;43.70;;;;;;5075205;28;1373;-69
2021/10/24 13:26:34;;;;;;;;;;;21.40;43.70;;;;;;5071632;28;1175;-70
2021/10/24 13:28:59;;;;;;;;;;;21.40;43.60;;;;;;5063809;28;1242;-68
2021/10/24 13:31:25;;;;;;;;;;;21.30;43.50;;;;;;5053494;28;1248;-69
2021/10/24 13:33:52;;;;;;;;;;;21.30;43.40;;;;;;5050384;28;1959;-69
2021/10/24 13:36:17;;;;;;;;;;;21.30;43.20;;;;;;5067111;28;1148;-69
2021/10/24 13:38:43;;;;;;;;;;;21.20;43.10;;;;;;5067209;28;1254;-69
2021/10/24 13:41:08;;;;;;;;;;;21.20;42.90;;;;;;5053290;28;1224;-71
2021/10/24 13:43:33;;;;;;;;;;;21.20;42.90;;;;;;5066123;28;1377;-71
2021/10/24 13:45:59;;;;;;;;;;;21.20;43.00;;;;;;5065083;28;1218;-69
2021/10/24 13:48:26;;;;;;;;;;;21.10;42.90;;;;;;5056576;28;1392;-69
2021/10/24 13:50:51;;;;;;;;;;;21.10;43.00;;;;;;5066038;28;1143;-69
2021/10/24 13:53:17;;;;;;;;;;;21.10;43.00;;;;;;5052525;28;1901;-69
2021/10/24 13:55:42;;;;;;;;;;;21.10;43.00;;;;;;5065649;28;1314;-69
2021/10/24 13:58:08;;;;;;;;;;;21.10;43.10;;;;;;5071348;28;1239;-70
2021/10/24 14:00:33;;;;;;;;;;;21.00;43.00;;;;;;5071200;28;1175;-69
2021/10/24 14:03:03;;;;;;;;;;;21.00;43.00;;;;;;5068689;28;1496;-69
2021/10/24 14:05:31;;;;;;;;;;;21.00;43.10;;;;;;5074094;28;1204;-69
2021/10/24 14:08:03;;;;;;;;;;;21.00;42.90;;;;;;5056139;28;1098;-70
2021/10/24 14:10:28;;;;;;;;;;;21.00;43.00;;;;;;5074337;28;1352;-69
2021/10/24 14:12:54;;;;;;;;;;;21.00;42.90;;;;;;5073192;28;1902;-69
2021/10/24 14:15:19;;;;;;;;;;;20.90;42.90;;;;;;5073584;28;1304;-69
2021/10/24 14:17:47;;;;;;;;;;;20.90;42.70;;;;;;5056263;28;1300;-69
2021/10/24 14:20:13;;;;;;;;;;;20.90;42.70;;;;;;5074183;28;1266;-69
2021/10/24 14:22:38;;;;;;;;;;;20.80;42.70;;;;;;5056407;28;1267;-70
2021/10/24 14:25:04;;;;;;;;;;;20.90;42.60;;;;;;5073879;28;1334;-69
2021/10/24 14:27:29;;;;;;;;;;;20.80;42.40;;;;;;5055968;28;1366;-69
2021/10/24 14:29:55;;;;;;;;;;;20.80;42.50;;;;;;5072889;28;1518;-68